Colorado Springs, Colorado
Current Conditions -  °F | °C
As of 6:54 PM on Friday 19 Dec 2014 (Local Time) from KCOS Reporting Station
Broken Clouds Broken Clouds  
Wind Chill: 30°   Ceiling: 25000
Heat Index: 35°   Visibility: 10mi
Dew Point: 14°   Wind: 6mph
Humidity: 42%   Direction: 210°SSW
Pressure: 30.05"   Gusts: NA
Location:  38.83°N, 104.82°W
Report Text: KCOS 200154Z 21005KT 10SM FEW120 BKN250 02/M10 A3005 RMK AO2 SLP217 T00171100
Loading
Personal Weather Stations






























Interactive Weather Map New forecast layout! Learn more

10-Day Weather Forecast

Advertisements
Track Severe Weather on mobile